San Francisco, California
Traffic Map
Current Weather Conditions
San Francisco, California
Scattered Clouds
Scattered Clouds
71°
Feels Like: 71°
Wind Chill: 71° Ceiling: Unl
Heat Index: 71° Visibility: 10mi
Dew Point: 50° Wind: 15mph
Humidity: 47% Direction: 270° (W)
Pressure: 30.04in Gusts: 23mph
Raw Report DataKSFO 212156Z 27013G20KT 10SM SCT180 22/10 A3004 RMK AO2 SLP173 T02170100 $
Traffic Incident Summary
Active as of:
Severity:
Category:
InformationThere was an issue retrieving the traffic information for this location. Please try a different location or try again shortly.
Advertisements
Track Severe Weather on mobile